createdAt,value
2018-07-06T00:00:48.718Z,5.43
2018-07-06T00:03:21.674Z,6.00
2018-07-06T00:05:54.713Z,5.67
2018-07-06T00:08:27.687Z,6.47
2018-07-06T00:11:00.729Z,6.57
2018-07-06T00:13:33.915Z,6.17
2018-07-06T00:16:07.060Z,5.73
2018-07-06T00:18:40.166Z,6.13
2018-07-06T00:21:13.217Z,6.10
2018-07-06T00:23:46.329Z,5.80
2018-07-06T00:26:19.266Z,6.12
2018-07-06T00:28:52.383Z,6.40
2018-07-06T00:31:25.502Z,5.50
2018-07-06T00:33:58.438Z,5.13
2018-07-06T00:36:31.532Z,5.73
2018-07-06T00:39:04.938Z,6.13
2018-07-06T00:41:38.067Z,6.30
2018-07-06T00:44:10.992Z,5.20
2018-07-06T00:46:44.121Z,5.80
2018-07-06T00:49:17.134Z,5.07
2018-07-06T00:51:50.210Z,5.83
2018-07-06T00:54:23.293Z,5.57
2018-07-06T00:56:56.400Z,5.10
2018-07-06T00:59:29.581Z,4.73
2018-07-06T01:02:02.581Z,4.70
2018-07-06T01:04:35.565Z,4.23
2018-07-06T01:07:08.635Z,4.73
2018-07-06T01:09:41.775Z,4.27
2018-07-06T01:12:20.386Z,4.23
2018-07-06T01:14:53.566Z,3.90
2018-07-06T01:17:26.677Z,3.97
2018-07-06T01:19:59.724Z,4.73
2018-07-06T01:22:32.816Z,3.40
2018-07-06T01:25:05.906Z,4.27
2018-07-06T01:27:38.986Z,4.03
2018-07-06T01:30:12.601Z,3.80
2018-07-06T01:32:45.677Z,3.57
2018-07-06T01:35:18.726Z,3.77
2018-07-06T01:37:51.750Z,3.50
2018-07-06T01:40:24.860Z,3.77
2018-07-06T01:42:57.931Z,3.60
2018-07-06T01:45:30.952Z,3.73
2018-07-06T01:48:04.154Z,3.63
2018-07-06T01:50:37.219Z,3.40
2018-07-06T01:53:10.306Z,3.70
2018-07-06T01:55:43.389Z,3.83
2018-07-06T01:58:16.449Z,3.30
2018-07-06T02:00:49.588Z,3.37
2018-07-06T02:03:22.746Z,3.70
2018-07-06T02:05:55.872Z,3.30
2018-07-06T02:08:28.931Z,3.70
2018-07-06T02:11:01.944Z,3.30
2018-07-06T02:13:34.955Z,3.00
2018-07-06T02:16:08.198Z,2.60
2018-07-06T02:18:41.264Z,2.80
2018-07-06T02:21:14.310Z,2.83
2018-07-06T02:23:47.316Z,2.80
2018-07-06T02:26:20.361Z,2.80
2018-07-06T02:28:53.544Z,2.20
2018-07-06T02:31:26.622Z,2.90
2018-07-06T02:33:59.555Z,2.63
2018-07-06T02:36:32.732Z,3.07
2018-07-06T02:39:05.797Z,2.60
2018-07-06T02:41:38.745Z,2.50
2018-07-06T02:44:11.830Z,2.90
2018-07-06T02:46:44.909Z,2.40
2018-07-06T02:49:18.080Z,3.20
2018-07-06T02:51:51.160Z,2.77
2018-07-06T02:54:24.251Z,2.40
2018-07-06T02:56:57.388Z,2.97
2018-07-06T02:59:30.521Z,2.80
2018-07-06T03:02:03.508Z,2.67
2018-07-06T03:04:36.619Z,2.43
2018-07-06T03:07:09.615Z,3.00
2018-07-06T03:09:42.698Z,2.30
2018-07-06T03:12:16.129Z,2.73
2018-07-06T03:14:49.389Z,2.90
2018-07-06T03:17:22.598Z,2.83
2018-07-06T03:19:55.793Z,3.07
2018-07-06T03:22:28.969Z,3.00
2018-07-06T03:25:02.078Z,2.87
2018-07-06T03:27:35.280Z,3.00
2018-07-06T03:30:08.499Z,3.13
2018-07-06T03:32:41.636Z,2.90
2018-07-06T03:35:14.771Z,2.93
2018-07-06T03:37:47.740Z,3.40
2018-07-06T03:40:20.799Z,2.90
2018-07-06T03:42:53.756Z,3.53
2018-07-06T03:45:26.904Z,3.30
2018-07-06T03:48:00.159Z,3.07
2018-07-06T03:50:33.078Z,3.13
2018-07-06T03:53:06.246Z,3.33
2018-07-06T03:55:39.396Z,3.50
2018-07-06T03:58:12.595Z,3.07
2018-07-06T04:00:45.647Z,3.77
2018-07-06T04:03:18.746Z,3.43
2018-07-06T04:05:51.893Z,3.57
2018-07-06T04:08:24.877Z,3.80
2018-07-06T04:10:57.787Z,3.43
2018-07-06T04:13:30.899Z,3.13
2018-07-06T04:16:03.994Z,2.60
2018-07-06T04:18:37.047Z,3.40
2018-07-06T04:21:09.989Z,3.10
2018-07-06T04:23:43.048Z,3.03
2018-07-06T04:26:16.113Z,3.23
2018-07-06T04:28:49.104Z,3.17
2018-07-06T04:31:22.140Z,3.57
2018-07-06T04:33:55.282Z,2.80
2018-07-06T04:36:28.343Z,3.47
2018-07-06T04:39:01.552Z,3.10
2018-07-06T04:41:34.654Z,3.60
2018-07-06T04:44:07.781Z,3.60
2018-07-06T04:46:40.962Z,3.80
2018-07-06T04:49:14.136Z,4.23
2018-07-06T04:51:47.298Z,3.90
2018-07-06T04:54:20.273Z,4.30
2018-07-06T04:56:53.485Z,3.90
2018-07-06T04:59:26.665Z,4.07
2018-07-06T05:01:59.769Z,4.67
2018-07-06T05:04:32.879Z,4.30
2018-07-06T05:07:05.859Z,4.50
2018-07-06T05:09:38.836Z,4.33
2018-07-06T05:12:11.842Z,4.10
2018-07-06T05:14:44.900Z,4.27
2018-07-06T05:17:17.995Z,4.03
2018-07-06T05:19:50.923Z,3.37
2018-07-06T05:22:23.982Z,3.90
2018-07-06T05:24:56.994Z,4.23
2018-07-06T05:27:30.028Z,4.10
2018-07-06T05:30:03.190Z,4.67
2018-07-06T05:32:36.295Z,4.03
2018-07-06T05:35:09.329Z,4.00
2018-07-06T05:37:42.602Z,3.90
2018-07-06T05:40:15.806Z,4.17
2018-07-06T05:42:48.906Z,5.40
2018-07-06T05:45:21.963Z,4.30
2018-07-06T05:47:54.983Z,4.30
2018-07-06T05:50:28.257Z,4.43
2018-07-06T05:53:01.345Z,4.50
2018-07-06T05:55:34.389Z,4.23
2018-07-06T05:58:07.842Z,4.90
2018-07-06T06:00:41.070Z,3.97
2018-07-06T06:03:14.249Z,4.00
2018-07-06T06:05:47.510Z,4.03
2018-07-06T06:08:14.517Z,4.50
2018-07-06T06:10:42.330Z,4.50
2018-07-06T06:13:10.185Z,3.97
2018-07-06T06:15:38.103Z,3.73
2018-07-06T06:18:06.235Z,4.80
2018-07-06T06:20:34.206Z,4.70
2018-07-06T06:23:02.096Z,4.53
2018-07-06T06:25:29.957Z,5.10
2018-07-06T06:27:57.960Z,4.43
2018-07-06T06:30:25.774Z,4.90
2018-07-06T06:32:53.577Z,5.37
2018-07-06T06:35:21.408Z,4.63
2018-07-06T06:37:49.266Z,4.67
2018-07-06T06:40:17.157Z,4.87
2018-07-06T06:42:45.110Z,4.80
2018-07-06T06:45:12.902Z,5.23
2018-07-06T06:47:40.788Z,4.63
2018-07-06T06:50:08.762Z,4.60
2018-07-06T06:52:36.926Z,4.90
2018-07-06T06:55:04.760Z,3.93
2018-07-06T06:57:32.740Z,4.40
2018-07-06T07:00:00.737Z,4.07
2018-07-06T07:02:28.566Z,4.33
2018-07-06T07:04:56.429Z,5.00
2018-07-06T07:07:24.347Z,4.63
2018-07-06T07:09:52.166Z,4.60
2018-07-06T07:12:20.032Z,4.40
2018-07-06T07:14:47.891Z,4.60
2018-07-06T07:17:34.150Z,4.60
2018-07-06T07:20:01.956Z,4.03
2018-07-06T07:22:29.750Z,4.30
2018-07-06T07:24:57.700Z,4.80
2018-07-06T07:27:25.561Z,4.33
2018-07-06T07:29:53.440Z,4.73
2018-07-06T07:32:21.305Z,3.93
2018-07-06T07:34:49.269Z,4.43
2018-07-06T07:37:17.151Z,3.97
2018-07-06T07:39:44.982Z,4.67
2018-07-06T07:42:12.765Z,4.27
2018-07-06T07:44:40.626Z,4.50
2018-07-06T07:47:08.405Z,5.20
2018-07-06T07:49:36.173Z,4.10
2018-07-06T07:52:11.522Z,4.20
2018-07-06T07:54:50.922Z,4.80
2018-07-06T07:57:18.823Z,3.83
2018-07-06T07:59:47.416Z,3.97
2018-07-06T08:02:15.414Z,3.80
2018-07-06T08:04:43.445Z,4.23
2018-07-06T08:07:11.337Z,3.80
2018-07-06T08:09:39.265Z,4.30
2018-07-06T08:12:07.173Z,4.10
2018-07-06T08:14:35.019Z,4.50
2018-07-06T08:17:02.916Z,3.80
2018-07-06T08:19:30.766Z,3.40
2018-07-06T08:21:58.641Z,4.63
2018-07-06T08:24:26.484Z,4.37
2018-07-06T08:26:54.266Z,4.13
2018-07-06T08:29:22.119Z,3.70
2018-07-06T08:35:04.634Z,3.93
2018-07-06T08:38:00.609Z,3.87
2018-07-06T08:40:28.756Z,3.97
2018-07-06T08:43:00.727Z,3.53
2018-07-06T08:45:29.344Z,3.70
2018-07-06T08:47:57.169Z,3.70
2018-07-06T08:50:25.089Z,3.70
2018-07-06T08:52:53.929Z,3.90
2018-07-06T08:55:22.023Z,4.60
2018-07-06T08:57:52.043Z,4.13
2018-07-06T09:00:19.874Z,3.20
2018-07-06T09:02:56.596Z,3.87
2018-07-06T09:05:24.417Z,3.87
2018-07-06T09:08:00.075Z,3.73
2018-07-06T09:10:27.984Z,3.50
2018-07-06T09:12:55.811Z,4.23
2018-07-06T09:15:23.716Z,3.43
2018-07-06T09:17:51.528Z,3.97
2018-07-06T09:20:19.556Z,3.80
2018-07-06T09:25:55.758Z,3.97
2018-07-06T09:28:23.676Z,3.87
2018-07-06T09:30:51.631Z,3.80
2018-07-06T09:33:19.840Z,4.37
2018-07-06T09:35:47.723Z,3.47
2018-07-06T09:38:15.436Z,4.03
2018-07-06T09:40:43.552Z,3.57
2018-07-06T09:43:11.181Z,3.27
2018-07-06T09:45:39.141Z,3.77
2018-07-06T09:48:07.022Z,3.40
2018-07-06T09:50:34.905Z,3.27
2018-07-06T09:53:02.737Z,4.00
2018-07-06T09:55:30.620Z,3.77
2018-07-06T09:57:58.521Z,3.60
2018-07-06T10:00:31.542Z,3.00
2018-07-06T10:02:59.329Z,3.40
2018-07-06T10:05:27.093Z,3.50
2018-07-06T10:07:54.854Z,3.17
2018-07-06T10:10:22.738Z,3.10
2018-07-06T10:12:50.615Z,3.90
2018-07-06T10:15:18.494Z,3.83
2018-07-06T10:17:46.330Z,3.30
2018-07-06T10:20:14.127Z,4.00
2018-07-06T10:22:41.956Z,4.40
2018-07-06T10:25:10.103Z,4.07
2018-07-06T10:27:43.547Z,4.10
2018-07-06T10:30:19.573Z,4.10
2018-07-06T10:32:47.377Z,3.90
2018-07-06T10:35:15.230Z,4.20
2018-07-06T10:37:42.997Z,4.33
2018-07-06T10:40:10.991Z,3.90
2018-07-06T10:42:38.735Z,4.13
2018-07-06T10:45:06.628Z,5.00
2018-07-06T10:47:34.450Z,4.43
2018-07-06T10:50:02.356Z,3.60
2018-07-06T10:52:30.201Z,3.60
2018-07-06T10:54:57.980Z,3.63
2018-07-06T10:57:25.829Z,3.77
2018-07-06T10:59:53.718Z,3.80
2018-07-06T11:02:21.570Z,3.53
2018-07-06T11:04:49.357Z,3.17
2018-07-06T11:07:17.309Z,3.73
2018-07-06T11:09:45.067Z,3.73
2018-07-06T11:12:12.922Z,3.50
2018-07-06T11:14:40.725Z,3.90
2018-07-06T11:17:08.580Z,3.90
2018-07-06T11:19:36.446Z,2.93
2018-07-06T11:22:05.371Z,3.40
2018-07-06T11:24:33.092Z,3.70
2018-07-06T11:27:00.952Z,4.23
2018-07-06T11:29:28.825Z,3.60
2018-07-06T11:31:56.695Z,3.80
2018-07-06T11:34:24.557Z,3.50
2018-07-06T11:36:52.431Z,3.27
2018-07-06T11:39:20.284Z,4.80
2018-07-06T11:41:48.172Z,4.50
2018-07-06T11:44:16.023Z,4.20
2018-07-06T11:46:43.985Z,3.40
2018-07-06T11:49:11.762Z,3.40
2018-07-06T11:51:39.637Z,4.90
2018-07-06T11:54:07.581Z,3.90
2018-07-06T11:56:35.587Z,3.10
2018-07-06T11:59:03.460Z,4.10
2018-07-06T12:01:31.305Z,3.73
2018-07-06T12:03:59.322Z,3.13
2018-07-06T12:06:27.152Z,3.60
2018-07-06T12:08:55.036Z,2.97
2018-07-06T12:11:23.000Z,3.90
2018-07-06T12:13:50.950Z,3.33
2018-07-06T12:16:18.800Z,3.50
2018-07-06T12:18:46.610Z,3.30
2018-07-06T12:21:14.540Z,4.00
2018-07-06T12:23:42.356Z,3.47
2018-07-06T12:26:10.188Z,4.53
2018-07-06T12:28:38.066Z,3.50
2018-07-06T12:31:05.913Z,3.70
2018-07-06T12:33:33.730Z,3.57
2018-07-06T12:36:01.855Z,3.60
2018-07-06T12:38:29.542Z,3.60
2018-07-06T12:40:57.404Z,3.50
2018-07-06T12:43:25.069Z,3.40
2018-07-06T12:45:52.694Z,3.87
2018-07-06T12:48:20.364Z,3.67
2018-07-06T12:50:48.290Z,3.93
2018-07-06T12:53:15.876Z,3.53
2018-07-06T12:55:43.457Z,2.97
2018-07-06T12:58:11.144Z,4.00
2018-07-06T13:00:38.789Z,3.07
2018-07-06T13:03:06.406Z,3.60
2018-07-06T13:05:33.998Z,3.40
2018-07-06T13:08:01.590Z,3.67
2018-07-06T13:10:29.533Z,3.87
2018-07-06T13:12:57.168Z,3.60
2018-07-06T13:15:24.920Z,3.13
2018-07-06T13:17:52.506Z,4.17
2018-07-06T13:20:20.122Z,3.50
2018-07-06T13:22:47.752Z,3.67
2018-07-06T13:25:15.429Z,3.80
2018-07-06T13:27:43.095Z,3.37
2018-07-06T13:30:10.749Z,3.07
2018-07-06T13:32:38.358Z,2.73
2018-07-06T13:35:05.974Z,2.97
2018-07-06T13:37:33.623Z,2.50
2018-07-06T13:40:01.226Z,2.53
2018-07-06T13:42:29.154Z,2.40
2018-07-06T13:44:57.035Z,2.73
2018-07-06T13:47:25.006Z,2.97
2018-07-06T13:49:52.869Z,3.10
2018-07-06T13:52:20.751Z,2.20
2018-07-06T13:54:48.645Z,2.60
2018-07-06T13:57:16.568Z,2.87
2018-07-06T13:59:44.428Z,2.57
2018-07-06T14:02:12.344Z,3.07
2018-07-06T14:04:40.185Z,3.00
2018-07-06T14:07:08.257Z,2.33
2018-07-06T14:09:36.304Z,2.50
2018-07-06T14:12:04.170Z,2.40
2018-07-06T14:14:32.058Z,2.93
2018-07-06T14:16:59.914Z,2.00
2018-07-06T14:19:27.799Z,2.60
2018-07-06T14:21:55.757Z,2.67
2018-07-06T14:24:23.934Z,2.23
2018-07-06T14:26:51.797Z,2.20
2018-07-06T14:29:19.657Z,2.37
2018-07-06T14:31:47.560Z,2.23
2018-07-06T14:34:15.400Z,2.43
2018-07-06T14:36:43.166Z,2.23
2018-07-06T14:39:11.033Z,2.40
2018-07-06T14:41:39.011Z,2.63
2018-07-06T14:44:07.015Z,2.20
2018-07-06T14:46:34.863Z,2.63
2018-07-06T14:49:02.896Z,2.30
2018-07-06T14:51:30.781Z,2.50
2018-07-06T14:53:58.741Z,2.37
2018-07-06T14:56:26.658Z,2.17
2018-07-06T14:58:54.530Z,2.00
2018-07-06T15:01:22.376Z,2.17
2018-07-06T15:03:50.142Z,2.30
2018-07-06T15:06:18.000Z,2.03
2018-07-06T15:08:46.572Z,2.47
2018-07-06T15:11:14.636Z,2.23
2018-07-06T15:13:42.609Z,2.03
2018-07-06T15:16:10.602Z,1.80
2018-07-06T15:18:38.238Z,1.90
2018-07-06T15:21:06.073Z,1.90
2018-07-06T15:23:34.801Z,2.00
2018-07-06T15:26:02.669Z,1.70
2018-07-06T15:28:30.538Z,2.27
2018-07-06T15:30:58.401Z,1.93
2018-07-06T15:33:26.169Z,2.77
2018-07-06T15:35:54.328Z,2.20
2018-07-06T15:38:22.217Z,2.50
2018-07-06T15:40:50.105Z,2.00
2018-07-06T15:43:17.943Z,2.70
2018-07-06T15:45:45.841Z,1.47
2018-07-06T15:48:13.821Z,1.80
2018-07-06T15:50:41.663Z,2.00
2018-07-06T15:53:09.601Z,2.37
2018-07-06T15:55:37.365Z,2.27
2018-07-06T15:58:05.241Z,2.57
2018-07-06T16:00:33.147Z,3.13
2018-07-06T16:03:00.973Z,5.83
2018-07-06T16:05:29.161Z,3.70
2018-07-06T16:07:57.021Z,3.30
2018-07-06T16:10:24.906Z,3.10
2018-07-06T16:12:52.742Z,2.00
2018-07-06T16:15:20.537Z,2.50
2018-07-06T16:17:48.420Z,2.47
2018-07-06T16:20:16.132Z,4.03
2018-07-06T16:22:44.072Z,6.33
2018-07-06T16:25:11.881Z,2.83
2018-07-06T16:27:39.765Z,2.30
2018-07-06T16:30:07.610Z,2.33
2018-07-06T16:32:35.481Z,2.50
2018-07-06T16:35:03.460Z,2.40
2018-07-06T16:37:31.313Z,2.40
2018-07-06T16:39:59.183Z,2.37
2018-07-06T16:42:27.451Z,3.07
2018-07-06T16:44:55.274Z,2.70
2018-07-06T16:47:23.120Z,2.67
2018-07-06T16:49:50.856Z,3.53
2018-07-06T16:52:18.687Z,2.43
2018-07-06T16:54:46.497Z,2.40
2018-07-06T16:57:14.388Z,1.90
2018-07-06T16:59:41.988Z,1.80
2018-07-06T17:02:09.682Z,2.07
2018-07-06T17:04:37.655Z,1.80
2018-07-06T17:07:05.536Z,1.60
2018-07-06T17:09:33.484Z,2.00
2018-07-06T17:12:01.372Z,1.80
2018-07-06T17:14:29.112Z,1.60
2018-07-06T17:16:56.918Z,1.63
2018-07-06T17:19:24.872Z,1.53
2018-07-06T17:21:52.538Z,1.60
2018-07-06T17:24:20.384Z,1.80
2018-07-06T17:26:48.290Z,1.00
2018-07-06T17:29:16.143Z,1.20
2018-07-06T17:31:44.233Z,1.40
2018-07-06T17:34:12.082Z,1.90
2018-07-06T17:36:40.044Z,2.00
2018-07-06T17:39:07.911Z,2.30
2018-07-06T17:41:35.784Z,2.37
2018-07-06T17:44:03.428Z,1.50
2018-07-06T17:46:31.313Z,1.70
2018-07-06T17:48:59.170Z,1.60
2018-07-06T17:51:26.765Z,1.67
2018-07-06T17:53:54.623Z,1.40
2018-07-06T17:56:22.492Z,1.30
2018-07-06T17:58:50.457Z,1.67
2018-07-06T18:01:18.340Z,1.43
2018-07-06T18:03:46.230Z,1.40
2018-07-06T18:06:14.074Z,1.70
2018-07-06T18:08:41.772Z,1.87
2018-07-06T18:11:09.469Z,1.37
2018-07-06T18:13:37.377Z,1.60
2018-07-06T18:16:05.139Z,1.90
2018-07-06T18:18:32.765Z,1.83
2018-07-06T18:21:00.490Z,1.80
2018-07-06T18:23:28.209Z,1.73
2018-07-06T18:25:56.019Z,1.63
2018-07-06T18:28:23.662Z,1.80
2018-07-06T18:30:51.328Z,1.83
2018-07-06T18:33:19.089Z,1.60
2018-07-06T18:35:46.764Z,1.90
2018-07-06T18:38:14.508Z,1.97
2018-07-06T18:40:42.354Z,2.07
2018-07-06T18:43:10.069Z,2.10
2018-07-06T18:45:37.774Z,2.30
2018-07-06T18:48:05.677Z,2.00
2018-07-06T18:50:33.625Z,1.93
2018-07-06T18:53:01.338Z,2.00
2018-07-06T18:55:28.980Z,1.80
2018-07-06T18:57:56.748Z,1.87
2018-07-06T19:00:24.475Z,2.10
2018-07-06T19:02:52.155Z,1.90
2018-07-06T19:05:19.822Z,2.60
2018-07-06T19:07:47.486Z,2.10
2018-07-06T19:10:15.142Z,2.90
2018-07-06T19:12:42.794Z,2.73
2018-07-06T19:15:10.453Z,2.77
2018-07-06T19:17:38.153Z,2.83
2018-07-06T19:20:05.918Z,3.10
2018-07-06T19:22:33.613Z,3.20
2018-07-06T19:25:01.267Z,2.80
2018-07-06T19:27:28.960Z,2.33
2018-07-06T19:29:56.666Z,2.73
2018-07-06T19:32:31.264Z,3.80
2018-07-06T19:35:24.972Z,3.20
2018-07-06T19:37:59.261Z,3.20
2018-07-06T19:40:33.138Z,3.97
2018-07-06T19:43:01.183Z,3.80
2018-07-06T19:45:28.913Z,3.80
2018-07-06T19:47:57.193Z,3.13
2018-07-06T19:50:24.961Z,3.97
2018-07-06T19:52:53.892Z,4.40
2018-07-06T19:55:21.735Z,3.60
2018-07-06T19:57:49.424Z,3.10
2018-07-06T20:00:17.093Z,4.00
2018-07-06T20:02:44.748Z,3.80
2018-07-06T20:05:12.878Z,4.03
2018-07-06T20:07:40.714Z,5.00
2018-07-06T20:10:08.378Z,4.30
2018-07-06T20:12:36.086Z,3.80
2018-07-06T20:15:03.817Z,3.77
2018-07-06T20:17:31.439Z,4.40
2018-07-06T20:19:59.164Z,4.60
2018-07-06T20:22:26.821Z,4.97
2018-07-06T20:24:54.488Z,4.83
2018-07-06T20:27:22.122Z,4.77
2018-07-06T20:29:49.732Z,5.10
2018-07-06T20:32:17.444Z,5.07
2018-07-06T20:34:45.082Z,4.53
2018-07-06T20:37:12.785Z,4.43
2018-07-06T20:39:40.464Z,4.87
2018-07-06T20:42:08.085Z,4.50
2018-07-06T20:44:35.726Z,5.17
2018-07-06T20:47:03.406Z,5.57
2018-07-06T20:49:31.017Z,5.13
2018-07-06T20:51:58.681Z,5.20
2018-07-06T20:54:26.360Z,4.83
2018-07-06T20:56:54.241Z,5.97
2018-07-06T20:59:22.895Z,4.70
2018-07-06T21:01:50.642Z,5.20
2018-07-06T21:04:18.315Z,5.43
2018-07-06T21:06:46.033Z,9.93
2018-07-06T21:09:13.705Z,7.33
2018-07-06T21:11:41.407Z,5.57
2018-07-06T21:14:09.129Z,5.50
2018-07-06T21:16:37.255Z,5.43
2018-07-06T21:19:04.988Z,5.63
2018-07-06T21:21:32.611Z,4.93
2018-07-06T21:24:00.197Z,4.77
2018-07-06T21:26:27.803Z,3.90
2018-07-06T21:28:55.424Z,4.43
2018-07-06T21:31:23.077Z,4.50
2018-07-06T21:33:50.716Z,4.27
2018-07-06T21:36:18.370Z,3.50
2018-07-06T21:38:45.981Z,3.40
2018-07-06T21:41:13.608Z,2.73
2018-07-06T21:43:41.226Z,3.37
2018-07-06T21:46:08.870Z,3.80
2018-07-06T21:48:41.526Z,3.10
2018-07-06T21:51:09.335Z,3.00
2018-07-06T21:53:36.938Z,3.53
2018-07-06T21:56:04.833Z,2.60
2018-07-06T21:58:32.491Z,3.20
2018-07-06T22:01:00.414Z,3.00
2018-07-06T22:03:28.031Z,3.10
2018-07-06T22:05:55.737Z,3.70
2018-07-06T22:08:23.442Z,4.37
2018-07-06T22:10:51.201Z,3.53
2018-07-06T22:13:18.889Z,3.20
2018-07-06T22:15:47.449Z,2.80
2018-07-06T22:18:17.480Z,2.73
2018-07-06T22:20:46.042Z,3.10
2018-07-06T22:23:14.218Z,3.40
2018-07-06T22:25:42.136Z,2.50
2018-07-06T22:28:09.735Z,2.50
2018-07-06T22:30:37.400Z,2.83
2018-07-06T22:33:05.175Z,2.77
2018-07-06T22:35:32.855Z,2.80
2018-07-06T22:38:00.418Z,2.53
2018-07-06T22:40:28.071Z,2.70
2018-07-06T22:42:55.704Z,2.37
2018-07-06T22:45:23.317Z,2.40
2018-07-06T22:47:51.066Z,2.00
2018-07-06T22:50:18.704Z,2.27
2018-07-06T22:52:46.315Z,2.60
2018-07-06T22:55:13.941Z,2.57
2018-07-06T22:57:41.534Z,2.67
2018-07-06T23:00:09.146Z,2.50
2018-07-06T23:02:36.812Z,2.33
2018-07-06T23:05:09.120Z,2.97
2018-07-06T23:07:36.759Z,2.53
2018-07-06T23:10:04.418Z,2.80
2018-07-06T23:12:32.067Z,2.63
2018-07-06T23:14:59.651Z,2.70
2018-07-06T23:17:27.290Z,2.77
2018-07-06T23:19:54.867Z,2.80
2018-07-06T23:22:27.152Z,2.87
2018-07-06T23:24:54.793Z,2.40
2018-07-06T23:27:22.464Z,2.53
2018-07-06T23:29:50.111Z,2.73
2018-07-06T23:32:17.845Z,2.77
2018-07-06T23:34:45.432Z,3.00
2018-07-06T23:37:12.997Z,3.40
2018-07-06T23:39:40.670Z,3.03
2018-07-06T23:42:08.317Z,2.70
2018-07-06T23:44:35.910Z,2.70
2018-07-06T23:47:03.546Z,2.53
2018-07-06T23:49:31.234Z,2.60
2018-07-06T23:51:58.864Z,2.63
2018-07-06T23:54:26.459Z,2.77
2018-07-06T23:56:54.106Z,2.47
2018-07-06T23:59:21.760Z,2.30
